SXS7LC LTBJ-EDDN
Flight info
| Callsign | SXS7LC |
|---|---|
| Flight time | N/A |
| Altitude | 32000 |
| Route | VEXOL UG802 NEMIS UG18 FSK UL608 DISOR DCT LONTA UL608 DOLEV DCT NIDLO DCT LIMRA DCT SUBEN T161 AKINI |
| Aircraft | B38M/M-SDE1FGHILORVWXY/HB1 |
Departure
| Time | 2026-05-07 16:17 |
|---|---|
| Airport | Adnan Menderes International Airport (LTBJ) |
Arrival
| Time | N/A |
|---|---|
| Airport | Nuremberg Airport (EDDN) |
| Time | Latitude | Longitude | Altitude | Speed | Heading |
|---|---|---|---|---|---|
| 2026-05-07 15:44 | 38.29297 | 27.15079 | 414 ft | 0 kts | 256° |
| 2026-05-07 16:07 | 38.29301 | 27.15096 | 411 ft | 4 kts | 255° |
| 2026-05-07 16:07 | 38.29308 | 27.15123 | 411 ft | 4 kts | 230° |
| 2026-05-07 16:07 | 38.29328 | 27.15134 | 414 ft | 4 kts | 173° |
| 2026-05-07 16:08 | 38.29345 | 27.15130 | 414 ft | 1 kts | 166° |
| 2026-05-07 16:08 | 38.29347 | 27.15129 | 414 ft | 0 kts | 166° |
| 2026-05-07 16:11 | 38.29341 | 27.15131 | 414 ft | 3 kts | 167° |
| 2026-05-07 16:12 | 38.29283 | 27.15148 | 414 ft | 13 kts | 167° |
| 2026-05-07 16:12 | 38.29187 | 27.15178 | 411 ft | 15 kts | 166° |
| 2026-05-07 16:12 | 38.29083 | 27.15209 | 410 ft | 16 kts | 167° |
| 2026-05-07 16:12 | 38.29008 | 27.15275 | 413 ft | 12 kts | 113° |
| 2026-05-07 16:13 | 38.28933 | 27.15320 | 412 ft | 13 kts | 168° |
| 2026-05-07 16:13 | 38.28838 | 27.15349 | 412 ft | 17 kts | 166° |
| 2026-05-07 16:13 | 38.28711 | 27.15388 | 414 ft | 19 kts | 167° |
| 2026-05-07 16:13 | 38.28578 | 27.15428 | 416 ft | 20 kts | 166° |
| 2026-05-07 16:14 | 38.28439 | 27.15470 | 414 ft | 21 kts | 167° |
| 2026-05-07 16:14 | 38.28293 | 27.15514 | 415 ft | 22 kts | 167° |
| 2026-05-07 16:14 | 38.28139 | 27.15560 | 418 ft | 23 kts | 167° |
| 2026-05-07 16:14 | 38.28034 | 27.15592 | 415 ft | 24 kts | 166° |
| 2026-05-07 16:15 | 38.27874 | 27.15640 | 415 ft | 21 kts | 167° |
| 2026-05-07 16:15 | 38.27765 | 27.15683 | 418 ft | 15 kts | 132° |
| 2026-05-07 16:15 | 38.27770 | 27.15770 | 416 ft | 10 kts | 76° |
| 2026-05-07 16:15 | 38.27774 | 27.15794 | 421 ft | 2 kts | 76° |
| 2026-05-07 16:16 | 38.27777 | 27.15811 | 421 ft | 4 kts | 76° |
| 2026-05-07 16:16 | 38.27787 | 27.15865 | 413 ft | 9 kts | 76° |
| 2026-05-07 16:16 | 38.27849 | 27.15901 | 420 ft | 8 kts | 347° |
| 2026-05-07 16:16 | 38.27955 | 27.15870 | 418 ft | 40 kts | 347° |
| 2026-05-07 16:17 | 38.28441 | 27.15721 | 424 ft | 102 kts | 346° |
| 2026-05-07 16:17 | 38.29307 | 27.15459 | 422 ft | 152 kts | 347° |
| 2026-05-07 16:17 | 38.30430 | 27.15121 | 646 ft | 171 kts | 348° |
| 2026-05-07 16:17 | 38.31610 | 27.14809 | 1166 ft | 176 kts | 349° |
| 2026-05-07 16:18 | 38.32828 | 27.14504 | 1734 ft | 179 kts | 347° |
| 2026-05-07 16:18 | 38.34043 | 27.14168 | 2337 ft | 181 kts | 346° |
| 2026-05-07 16:18 | 38.35268 | 27.13816 | 2940 ft | 179 kts | 347° |
| 2026-05-07 16:18 | 38.36473 | 27.13481 | 3604 ft | 175 kts | 347° |
| 2026-05-07 16:19 | 38.37746 | 27.13119 | 3840 ft | 195 kts | 342° |
| 2026-05-07 16:19 | 38.38999 | 27.12212 | 3962 ft | 227 kts | 315° |
| 2026-05-07 16:19 | 38.39810 | 27.10417 | 4257 ft | 245 kts | 278° |
| 2026-05-07 16:19 | 38.39598 | 27.08259 | 4889 ft | 252 kts | 255° |
| 2026-05-07 16:20 | 38.39251 | 27.06000 | 5307 ft | 269 kts | 262° |
| 2026-05-07 16:20 | 38.39007 | 27.03601 | 5929 ft | 274 kts | 264° |
| 2026-05-07 16:20 | 38.38549 | 27.01245 | 6651 ft | 277 kts | 243° |
| 2026-05-07 16:20 | 38.37634 | 26.99077 | 7349 ft | 281 kts | 243° |
| 2026-05-07 16:21 | 38.36749 | 26.96839 | 8041 ft | 284 kts | 244° |
| 2026-05-07 16:21 | 38.35863 | 26.94572 | 8723 ft | 288 kts | 244° |
| 2026-05-07 16:21 | 38.34970 | 26.92270 | 9060 ft | 291 kts | 244° |
| 2026-05-07 16:21 | 38.34078 | 26.89961 | 9096 ft | 290 kts | 244° |
| 2026-05-07 16:22 | 38.33185 | 26.87650 | 9110 ft | 290 kts | 244° |
| 2026-05-07 16:22 | 38.32546 | 26.85226 | 9394 ft | 289 kts | 266° |
| 2026-05-07 16:22 | 38.32571 | 26.82673 | 10109 ft | 290 kts | 272° |
| 2026-05-07 16:22 | 38.32639 | 26.80044 | 10484 ft | 305 kts | 272° |
| 2026-05-07 16:23 | 38.32728 | 26.77269 | 10752 ft | 322 kts | 273° |
| 2026-05-07 16:23 | 38.32832 | 26.74361 | 11171 ft | 332 kts | 273° |
| 2026-05-07 16:23 | 38.32945 | 26.71423 | 11916 ft | 333 kts | 273° |
| 2026-05-07 16:23 | 38.33060 | 26.68505 | 12568 ft | 336 kts | 273° |
| 2026-05-07 16:24 | 38.33178 | 26.65514 | 13279 ft | 339 kts | 273° |
| 2026-05-07 16:24 | 38.33297 | 26.62506 | 13962 ft | 342 kts | 274° |
| 2026-05-07 16:24 | 38.33417 | 26.59474 | 14677 ft | 344 kts | 273° |
| 2026-05-07 16:24 | 38.33537 | 26.56414 | 15372 ft | 347 kts | 274° |
| 2026-05-07 16:25 | 38.33658 | 26.53325 | 16046 ft | 350 kts | 273° |
| 2026-05-07 16:25 | 38.33778 | 26.50216 | 16661 ft | 353 kts | 273° |
| 2026-05-07 16:25 | 38.33899 | 26.47080 | 17300 ft | 356 kts | 273° |
| 2026-05-07 16:25 | 38.34020 | 26.43917 | 17914 ft | 359 kts | 273° |
| 2026-05-07 16:26 | 38.34141 | 26.40733 | 18491 ft | 361 kts | 273° |
| 2026-05-07 16:26 | 38.34262 | 26.37513 | 19043 ft | 364 kts | 273° |
| 2026-05-07 16:26 | 38.34384 | 26.34267 | 19583 ft | 367 kts | 273° |
| 2026-05-07 16:26 | 38.34505 | 26.31012 | 20104 ft | 370 kts | 273° |
| 2026-05-07 16:27 | 38.34626 | 26.27724 | 20627 ft | 373 kts | 273° |
| 2026-05-07 16:27 | 38.34747 | 26.24409 | 21140 ft | 376 kts | 273° |
| 2026-05-07 16:27 | 38.34863 | 26.21076 | 21649 ft | 378 kts | 272° |
| 2026-05-07 16:27 | 38.34912 | 26.17712 | 22112 ft | 381 kts | 271° |
| 2026-05-07 16:28 | 38.34986 | 26.14325 | 22587 ft | 384 kts | 275° |
| 2026-05-07 16:28 | 38.35231 | 26.10927 | 23056 ft | 386 kts | 275° |
| 2026-05-07 16:28 | 38.35469 | 26.07508 | 23516 ft | 389 kts | 275° |
| 2026-05-07 16:28 | 38.35695 | 26.04109 | 23956 ft | 390 kts | 275° |
| 2026-05-07 16:29 | 38.35920 | 26.00650 | 24375 ft | 394 kts | 275° |
| 2026-05-07 16:29 | 38.36145 | 25.97155 | 24812 ft | 396 kts | 275° |
| 2026-05-07 16:29 | 38.36370 | 25.93654 | 25241 ft | 398 kts | 275° |
| 2026-05-07 16:29 | 38.36595 | 25.90128 | 25630 ft | 401 kts | 275° |
| 2026-05-07 16:30 | 38.36821 | 25.86578 | 26050 ft | 403 kts | 275° |
| 2026-05-07 16:30 | 38.37126 | 25.83013 | 26449 ft | 405 kts | 283° |
| 2026-05-07 16:30 | 38.38102 | 25.79654 | 26843 ft | 407 kts | 299° |
| 2026-05-07 16:30 | 38.39816 | 25.76779 | 27189 ft | 411 kts | 315° |
| 2026-05-07 16:31 | 38.41997 | 25.74412 | 27557 ft | 413 kts | 320° |
| 2026-05-07 16:31 | 38.44249 | 25.72098 | 27885 ft | 416 kts | 320° |
| 2026-05-07 16:31 | 38.46529 | 25.69811 | 28254 ft | 418 kts | 321° |
| 2026-05-07 16:31 | 38.48833 | 25.67528 | 28607 ft | 420 kts | 321° |
| 2026-05-07 16:32 | 38.51153 | 25.65245 | 28938 ft | 422 kts | 321° |
| 2026-05-07 16:32 | 38.53484 | 25.62956 | 29269 ft | 424 kts | 321° |
| 2026-05-07 16:32 | 38.55832 | 25.60653 | 29562 ft | 426 kts | 321° |
| 2026-05-07 16:32 | 38.58186 | 25.58341 | 29889 ft | 428 kts | 321° |
| 2026-05-07 16:33 | 38.60530 | 25.56039 | 30215 ft | 429 kts | 321° |
| 2026-05-07 16:33 | 38.62888 | 25.53720 | 30545 ft | 430 kts | 321° |
| 2026-05-07 16:33 | 38.65289 | 25.51357 | 30941 ft | 429 kts | 321° |
| 2026-05-07 16:33 | 38.67624 | 25.49057 | 31341 ft | 428 kts | 321° |
| 2026-05-07 16:34 | 38.69981 | 25.46733 | 31719 ft | 427 kts | 321° |
| 2026-05-07 16:34 | 38.72334 | 25.44412 | 32052 ft | 427 kts | 321° |
| 2026-05-07 16:34 | 38.74687 | 25.42088 | 32130 ft | 427 kts | 321° |
| 2026-05-07 16:35 | 38.79359 | 25.37468 | 32136 ft | 423 kts | 321° |
| 2026-05-07 16:35 | 38.84024 | 25.32848 | 32127 ft | 423 kts | 321° |
| 2026-05-07 16:36 | 38.88688 | 25.28221 | 32132 ft | 424 kts | 321° |
| 2026-05-07 16:36 | 38.93351 | 25.23586 | 32124 ft | 423 kts | 321° |
| 2026-05-07 16:37 | 38.98009 | 25.18950 | 32130 ft | 423 kts | 321° |
| 2026-05-07 16:37 | 39.02664 | 25.14307 | 32117 ft | 424 kts | 321° |
| 2026-05-07 16:38 | 39.07323 | 25.09653 | 32107 ft | 424 kts | 321° |
| 2026-05-07 16:38 | 39.11977 | 25.04997 | 32111 ft | 424 kts | 321° |
| 2026-05-07 16:39 | 39.16632 | 25.00331 | 32105 ft | 424 kts | 321° |
| 2026-05-07 16:39 | 39.21288 | 24.95657 | 32102 ft | 424 kts | 321° |
| 2026-05-07 16:40 | 39.25942 | 24.90978 | 32101 ft | 424 kts | 321° |
| 2026-05-07 16:40 | 39.30602 | 24.86287 | 32103 ft | 425 kts | 321° |
| 2026-05-07 16:41 | 39.35267 | 24.81581 | 32095 ft | 425 kts | 321° |
| 2026-05-07 16:41 | 39.39929 | 24.76870 | 32097 ft | 426 kts | 321° |
| 2026-05-07 16:42 | 39.44565 | 24.72178 | 32100 ft | 426 kts | 321° |
| 2026-05-07 16:42 | 39.49233 | 24.67446 | 32094 ft | 427 kts | 321° |
| 2026-05-07 16:43 | 39.53903 | 24.62698 | 32092 ft | 427 kts | 321° |
| 2026-05-07 16:43 | 39.58579 | 24.57936 | 32095 ft | 428 kts | 321° |
| 2026-05-07 16:44 | 39.63258 | 24.53164 | 32099 ft | 428 kts | 321° |
| 2026-05-07 16:44 | 39.67946 | 24.48374 | 32099 ft | 429 kts | 321° |
| 2026-05-07 16:45 | 39.72633 | 24.43575 | 32098 ft | 429 kts | 321° |
| 2026-05-07 16:45 | 39.77323 | 24.38765 | 32097 ft | 430 kts | 321° |
| 2026-05-07 16:46 | 39.82020 | 24.33940 | 32102 ft | 430 kts | 320° |
| 2026-05-07 16:46 | 39.86719 | 24.29104 | 32100 ft | 431 kts | 320° |
| 2026-05-07 16:47 | 39.91426 | 24.24251 | 32092 ft | 431 kts | 320° |
| 2026-05-07 16:47 | 39.96126 | 24.19397 | 32091 ft | 431 kts | 320° |
| 2026-05-07 16:48 | 40.00833 | 24.14526 | 32090 ft | 432 kts | 320° |
| 2026-05-07 16:48 | 40.05538 | 24.09649 | 32091 ft | 432 kts | 320° |
| 2026-05-07 16:49 | 40.10243 | 24.04763 | 32091 ft | 432 kts | 320° |
| 2026-05-07 16:49 | 40.14913 | 23.99904 | 32089 ft | 432 kts | 320° |
| 2026-05-07 16:50 | 40.19612 | 23.95006 | 32093 ft | 432 kts | 320° |
| 2026-05-07 16:50 | 40.24335 | 23.90075 | 32091 ft | 431 kts | 320° |
| 2026-05-07 16:51 | 40.28997 | 23.85197 | 32089 ft | 431 kts | 320° |
| 2026-05-07 16:51 | 40.33680 | 23.80290 | 32093 ft | 431 kts | 320° |
| 2026-05-07 16:52 | 40.38364 | 23.75371 | 32092 ft | 431 kts | 320° |
| 2026-05-07 16:52 | 40.43043 | 23.70450 | 32091 ft | 431 kts | 320° |
| 2026-05-07 16:53 | 40.47728 | 23.65512 | 32089 ft | 431 kts | 320° |
| 2026-05-07 16:53 | 40.52395 | 23.60585 | 32091 ft | 431 kts | 320° |
| 2026-05-07 16:54 | 40.57062 | 23.55650 | 32097 ft | 430 kts | 320° |
| 2026-05-07 16:54 | 40.61722 | 23.50711 | 32103 ft | 430 kts | 320° |
| 2026-05-07 16:55 | 40.66381 | 23.45765 | 32099 ft | 430 kts | 320° |
| 2026-05-07 16:55 | 40.71037 | 23.40813 | 32100 ft | 430 kts | 319° |
| 2026-05-07 16:56 | 40.75688 | 23.35857 | 32097 ft | 429 kts | 319° |
| 2026-05-07 16:56 | 40.82626 | 23.28451 | 32103 ft | 429 kts | 319° |
| 2026-05-07 16:57 | 40.87269 | 23.23483 | 32095 ft | 429 kts | 319° |
| 2026-05-07 16:57 | 40.91902 | 23.18510 | 32110 ft | 429 kts | 319° |
| 2026-05-07 16:58 | 40.96536 | 23.13530 | 32097 ft | 429 kts | 319° |
| 2026-05-07 16:58 | 41.00383 | 23.09389 | 32102 ft | 429 kts | 319° |
| 2026-05-07 16:59 | 41.05046 | 23.04362 | 32100 ft | 429 kts | 319° |
| 2026-05-07 16:59 | 41.09634 | 22.99374 | 32089 ft | 429 kts | 315° |
| 2026-05-07 17:00 | 41.13522 | 22.93426 | 32066 ft | 428 kts | 309° |
| 2026-05-07 17:00 | 41.17363 | 22.87409 | 32113 ft | 428 kts | 308° |
| 2026-05-07 17:01 | 41.21202 | 22.81376 | 32116 ft | 427 kts | 308° |
| 2026-05-07 17:01 | 41.25074 | 22.75381 | 32112 ft | 428 kts | 311° |
| 2026-05-07 17:02 | 41.29108 | 22.69550 | 32113 ft | 429 kts | 310° |
| 2026-05-07 17:02 | 41.33124 | 22.63676 | 32117 ft | 429 kts | 310° |
| 2026-05-07 17:03 | 41.37137 | 22.57789 | 32093 ft | 429 kts | 310° |
| 2026-05-07 17:03 | 41.41157 | 22.51878 | 32098 ft | 430 kts | 310° |
| 2026-05-07 17:04 | 41.45167 | 22.45970 | 32099 ft | 430 kts | 310° |
| 2026-05-07 17:04 | 41.49190 | 22.40033 | 32096 ft | 431 kts | 310° |
| 2026-05-07 17:05 | 41.53208 | 22.34090 | 32092 ft | 432 kts | 310° |
| 2026-05-07 17:05 | 41.57229 | 22.28131 | 32091 ft | 432 kts | 310° |
| 2026-05-07 17:06 | 41.61257 | 22.22150 | 32091 ft | 433 kts | 310° |
| 2026-05-07 17:06 | 41.65282 | 22.16161 | 32091 ft | 433 kts | 309° |
| 2026-05-07 17:07 | 41.69307 | 22.10160 | 32081 ft | 433 kts | 309° |
| 2026-05-07 17:07 | 41.73330 | 22.04150 | 32082 ft | 434 kts | 309° |
| 2026-05-07 17:08 | 41.77356 | 21.98122 | 32087 ft | 434 kts | 309° |
| 2026-05-07 17:08 | 41.81378 | 21.92088 | 32080 ft | 434 kts | 309° |
| 2026-05-07 17:09 | 41.85397 | 21.86047 | 32084 ft | 434 kts | 309° |
| 2026-05-07 17:09 | 41.89412 | 21.79999 | 32075 ft | 434 kts | 309° |
| 2026-05-07 17:10 | 41.93422 | 21.73946 | 32074 ft | 434 kts | 309° |
| 2026-05-07 17:10 | 41.97427 | 21.67890 | 32069 ft | 433 kts | 309° |
| 2026-05-07 17:11 | 42.01424 | 21.61833 | 32075 ft | 433 kts | 309° |
| 2026-05-07 17:11 | 42.05415 | 21.55771 | 32072 ft | 433 kts | 309° |
| 2026-05-07 17:12 | 42.09384 | 21.49734 | 32072 ft | 433 kts | 309° |
| 2026-05-07 17:12 | 42.13368 | 21.43661 | 32070 ft | 432 kts | 309° |
| 2026-05-07 17:13 | 42.17302 | 21.37537 | 32073 ft | 431 kts | 308° |
| 2026-05-07 17:13 | 42.21187 | 21.31368 | 32074 ft | 431 kts | 308° |
| 2026-05-07 17:14 | 42.25061 | 21.25221 | 32075 ft | 430 kts | 308° |
| 2026-05-07 17:14 | 42.28933 | 21.19068 | 32070 ft | 429 kts | 308° |
| 2026-05-07 17:15 | 42.32794 | 21.12919 | 32072 ft | 429 kts | 308° |
| 2026-05-07 17:15 | 42.36648 | 21.06769 | 32073 ft | 428 kts | 308° |
| 2026-05-07 17:16 | 42.40488 | 21.00629 | 32073 ft | 427 kts | 308° |
| 2026-05-07 17:16 | 42.44321 | 20.94486 | 32073 ft | 427 kts | 308° |
| 2026-05-07 17:17 | 42.48145 | 20.88346 | 32073 ft | 426 kts | 308° |
| 2026-05-07 17:17 | 42.51958 | 20.82210 | 32077 ft | 426 kts | 308° |
| 2026-05-07 17:18 | 42.55769 | 20.76064 | 32070 ft | 425 kts | 308° |
| 2026-05-07 17:18 | 42.59568 | 20.69926 | 32074 ft | 425 kts | 308° |
| 2026-05-07 17:19 | 42.63359 | 20.63786 | 32073 ft | 424 kts | 308° |
| 2026-05-07 17:19 | 42.67151 | 20.57634 | 32075 ft | 424 kts | 308° |
| 2026-05-07 17:20 | 42.70938 | 20.51476 | 32065 ft | 424 kts | 308° |
| 2026-05-07 17:20 | 42.74694 | 20.45358 | 32063 ft | 424 kts | 308° |
| 2026-05-07 17:21 | 42.78493 | 20.39155 | 32064 ft | 424 kts | 308° |
| 2026-05-07 17:21 | 42.82247 | 20.33016 | 32062 ft | 424 kts | 308° |
| 2026-05-07 17:22 | 42.84335 | 20.30188 | 32048 ft | 426 kts | 322° |
| 2026-05-07 17:22 | 42.86757 | 20.27851 | 32058 ft | 428 kts | 321° |
| 2026-05-07 17:22 | 42.91538 | 20.23022 | 32062 ft | 428 kts | 321° |
| 2026-05-07 17:23 | 42.96343 | 20.18209 | 32064 ft | 429 kts | 321° |
| 2026-05-07 17:23 | 43.01155 | 20.13389 | 32052 ft | 429 kts | 321° |